sensor_id;sensor_type;location;lat;lon;timestamp;temperature;humidity
18163;DHT22;9206;50.994;4.538;2023-07-20T00:00:05;16.20;99.90
18163;DHT22;9206;50.994;4.538;2023-07-20T00:03:14;16.20;99.90
18163;DHT22;9206;50.994;4.538;2023-07-20T00:06:05;16.20;99.90
18163;DHT22;9206;50.994;4.538;2023-07-20T00:08:55;16.30;99.90
18163;DHT22;9206;50.994;4.538;2023-07-20T00:11:52;16.30;99.90
18163;DHT22;9206;50.994;4.538;2023-07-20T00:14:40;16.20;99.90
18163;DHT22;9206;50.994;4.538;2023-07-20T00:17:32;16.30;99.90
18163;DHT22;9206;50.994;4.538;2023-07-20T00:20:23;16.20;99.90
18163;DHT22;9206;50.994;4.538;2023-07-20T00:23:11;16.20;99.90
18163;DHT22;9206;50.994;4.538;2023-07-20T00:25:58;16.20;99.90
18163;DHT22;9206;50.994;4.538;2023-07-20T00:28:51;16.20;99.90
18163;DHT22;9206;50.994;4.538;2023-07-20T00:31:44;16.20;99.90
18163;DHT22;9206;50.994;4.538;2023-07-20T00:34:36;16.20;99.90
18163;DHT22;9206;50.994;4.538;2023-07-20T00:37:24;16.20;99.90
18163;DHT22;9206;50.994;4.538;2023-07-20T00:40:23;16.20;99.90
18163;DHT22;9206;50.994;4.538;2023-07-20T00:43:12;16.20;99.90
18163;DHT22;9206;50.994;4.538;2023-07-20T00:46:02;16.20;99.90
18163;DHT22;9206;50.994;4.538;2023-07-20T00:48:51;16.20;99.90
18163;DHT22;9206;50.994;4.538;2023-07-20T00:51:44;16.20;99.90
18163;DHT22;9206;50.994;4.538;2023-07-20T00:54:32;16.20;99.90
18163;DHT22;9206;50.994;4.538;2023-07-20T00:57:21;16.10;99.90
18163;DHT22;9206;50.994;4.538;2023-07-20T01:00:11;16.10;99.90
18163;DHT22;9206;50.994;4.538;2023-07-20T01:03:01;16.10;99.90
18163;DHT22;9206;50.994;4.538;2023-07-20T01:05:54;16.10;99.90
18163;DHT22;9206;50.994;4.538;2023-07-20T01:08:57;16.00;99.90
18163;DHT22;9206;50.994;4.538;2023-07-20T01:11:56;16.00;99.90
18163;DHT22;9206;50.994;4.538;2023-07-20T01:14:49;16.00;99.90
18163;DHT22;9206;50.994;4.538;2023-07-20T01:17:39;16.00;99.90
18163;DHT22;9206;50.994;4.538;2023-07-20T01:20:34;15.90;99.90
18163;DHT22;9206;50.994;4.538;2023-07-20T01:23:41;15.90;99.90
18163;DHT22;9206;50.994;4.538;2023-07-20T01:26:45;15.90;99.90
18163;DHT22;9206;50.994;4.538;2023-07-20T01:30:02;15.90;99.90
18163;DHT22;9206;50.994;4.538;2023-07-20T01:32:59;15.80;99.90
18163;DHT22;9206;50.994;4.538;2023-07-20T01:35:53;15.80;99.90
18163;DHT22;9206;50.994;4.538;2023-07-20T01:38:45;15.80;99.90
18163;DHT22;9206;50.994;4.538;2023-07-20T01:41:41;15.80;99.90
18163;DHT22;9206;50.994;4.538;2023-07-20T01:44:30;15.70;99.90
18163;DHT22;9206;50.994;4.538;2023-07-20T01:47:19;15.70;99.90
18163;DHT22;9206;50.994;4.538;2023-07-20T01:50:08;15.60;99.90
18163;DHT22;9206;50.994;4.538;2023-07-20T01:52:56;15.60;99.90
18163;DHT22;9206;50.994;4.538;2023-07-20T01:55:45;15.50;99.90
18163;DHT22;9206;50.994;4.538;2023-07-20T01:58:39;15.50;99.90
18163;DHT22;9206;50.994;4.538;2023-07-20T02:01:27;15.50;99.90
18163;DHT22;9206;50.994;4.538;2023-07-20T02:04:31;15.40;99.90
18163;DHT22;9206;50.994;4.538;2023-07-20T02:07:22;15.40;99.90
18163;DHT22;9206;50.994;4.538;2023-07-20T02:10:18;15.30;99.90
18163;DHT22;9206;50.994;4.538;2023-07-20T02:13:07;15.30;99.90
18163;DHT22;9206;50.994;4.538;2023-07-20T02:15:55;15.20;99.90
18163;DHT22;9206;50.994;4.538;2023-07-20T02:18:44;15.20;99.90
18163;DHT22;9206;50.994;4.538;2023-07-20T02:21:34;15.10;99.90
18163;DHT22;9206;50.994;4.538;2023-07-20T02:24:29;15.10;99.90
18163;DHT22;9206;50.994;4.538;2023-07-20T02:27:16;15.10;99.90
18163;DHT22;9206;50.994;4.538;2023-07-20T02:30:05;15.00;99.90
18163;DHT22;9206;50.994;4.538;2023-07-20T02:32:58;15.00;99.90
18163;DHT22;9206;50.994;4.538;2023-07-20T02:35:52;15.00;99.90
18163;DHT22;9206;50.994;4.538;2023-07-20T02:38:42;15.00;99.90
18163;DHT22;9206;50.994;4.538;2023-07-20T02:41:33;15.00;99.90
18163;DHT22;9206;50.994;4.538;2023-07-20T02:44:22;15.00;99.90
18163;DHT22;9206;50.994;4.538;2023-07-20T02:47:15;14.90;99.90
18163;DHT22;9206;50.994;4.538;2023-07-20T02:50:08;14.90;99.90
18163;DHT22;9206;50.994;4.538;2023-07-20T02:52:56;14.90;99.90
18163;DHT22;9206;50.994;4.538;2023-07-20T02:55:49;14.80;99.90
18163;DHT22;9206;50.994;4.538;2023-07-20T02:58:41;14.80;99.90
18163;DHT22;9206;50.994;4.538;2023-07-20T03:01:37;14.80;99.90
18163;DHT22;9206;50.994;4.538;2023-07-20T03:04:26;14.80;99.90
18163;DHT22;9206;50.994;4.538;2023-07-20T03:07:14;14.70;99.90
18163;DHT22;9206;50.994;4.538;2023-07-20T03:10:01;14.80;99.90
18163;DHT22;9206;50.994;4.538;2023-07-20T03:12:55;14.80;99.90
18163;DHT22;9206;50.994;4.538;2023-07-20T03:15:47;14.70;99.90
18163;DHT22;9206;50.994;4.538;2023-07-20T03:18:37;14.80;99.90
18163;DHT22;9206;50.994;4.538;2023-07-20T03:21:32;14.80;99.90
18163;DHT22;9206;50.994;4.538;2023-07-20T03:24:25;14.80;99.90
18163;DHT22;9206;50.994;4.538;2023-07-20T03:27:13;14.80;99.90
18163;DHT22;9206;50.994;4.538;2023-07-20T03:30:03;14.80;99.90
18163;DHT22;9206;50.994;4.538;2023-07-20T03:32:59;14.80;99.90
18163;DHT22;9206;50.994;4.538;2023-07-20T03:35:53;14.80;99.90
18163;DHT22;9206;50.994;4.538;2023-07-20T03:38:44;14.80;99.90
18163;DHT22;9206;50.994;4.538;2023-07-20T03:41:34;14.80;99.90
18163;DHT22;9206;50.994;4.538;2023-07-20T03:44:23;14.80;99.90
18163;DHT22;9206;50.994;4.538;2023-07-20T03:47:16;14.80;99.90
18163;DHT22;9206;50.994;4.538;2023-07-20T03:50:07;14.80;99.90
18163;DHT22;9206;50.994;4.538;2023-07-20T03:53:01;14.80;99.90
18163;DHT22;9206;50.994;4.538;2023-07-20T03:55:54;14.80;99.90
18163;DHT22;9206;50.994;4.538;2023-07-20T03:58:42;14.80;99.90
18163;DHT22;9206;50.994;4.538;2023-07-20T04:01:30;14.80;99.90
18163;DHT22;9206;50.994;4.538;2023-07-20T04:04:24;14.80;99.90
18163;DHT22;9206;50.994;4.538;2023-07-20T04:07:15;14.90;99.90
18163;DHT22;9206;50.994;4.538;2023-07-20T04:10:03;14.90;99.90
18163;DHT22;9206;50.994;4.538;2023-07-20T04:12:52;14.90;99.90
18163;DHT22;9206;50.994;4.538;2023-07-20T04:15:39;14.90;99.90
18163;DHT22;9206;50.994;4.538;2023-07-20T04:18:27;15.00;99.90
18163;DHT22;9206;50.994;4.538;2023-07-20T04:21:20;15.00;99.90
18163;DHT22;9206;50.994;4.538;2023-07-20T04:24:15;15.00;99.90
18163;DHT22;9206;50.994;4.538;2023-07-20T04:27:04;15.10;99.90
18163;DHT22;9206;50.994;4.538;2023-07-20T04:29:58;15.10;99.90
18163;DHT22;9206;50.994;4.538;2023-07-20T04:32:46;15.10;99.90
18163;DHT22;9206;50.994;4.538;2023-07-20T04:35:48;15.20;99.90
18163;DHT22;9206;50.994;4.538;2023-07-20T04:38:42;15.20;99.90
18163;DHT22;9206;50.994;4.538;2023-07-20T04:41:33;15.30;99.90
18163;DHT22;9206;50.994;4.538;2023-07-20T04:44:30;15.30;99.90
18163;DHT22;9206;50.994;4.538;2023-07-20T04:47:23;15.30;99.90
18163;DHT22;9206;50.994;4.538;2023-07-20T04:50:12;15.40;99.90
18163;DHT22;9206;50.994;4.538;2023-07-20T04:53:00;15.50;99.90
18163;DHT22;9206;50.994;4.538;2023-07-20T04:55:53;15.50;99.90
18163;DHT22;9206;50.994;4.538;2023-07-20T04:58:51;15.60;99.90
18163;DHT22;9206;50.994;4.538;2023-07-20T05:01:44;15.60;99.90
18163;DHT22;9206;50.994;4.538;2023-07-20T05:04:47;15.70;99.90
18163;DHT22;9206;50.994;4.538;2023-07-20T05:07:38;15.80;99.90
18163;DHT22;9206;50.994;4.538;2023-07-20T05:10:35;15.80;99.90
18163;DHT22;9206;50.994;4.538;2023-07-20T05:16:13;16.00;99.90
18163;DHT22;9206;50.994;4.538;2023-07-20T05:16:58;16.10;99.90
18163;DHT22;9206;50.994;4.538;2023-07-20T05:19:45;16.10;99.90
18163;DHT22;9206;50.994;4.538;2023-07-20T05:22:33;16.20;99.90
18163;DHT22;9206;50.994;4.538;2023-07-20T05:25:22;16.30;99.90
18163;DHT22;9206;50.994;4.538;2023-07-20T05:28:09;16.40;99.90
18163;DHT22;9206;50.994;4.538;2023-07-20T05:30:57;16.40;99.90
18163;DHT22;9206;50.994;4.538;2023-07-20T05:34:04;16.50;99.90
18163;DHT22;9206;50.994;4.538;2023-07-20T05:36:51;16.50;99.90
18163;DHT22;9206;50.994;4.538;2023-07-20T05:39:40;16.60;99.90
18163;DHT22;9206;50.994;4.538;2023-07-20T05:42:30;16.60;99.90
18163;DHT22;9206;50.994;4.538;2023-07-20T05:45:20;16.70;99.90
18163;DHT22;9206;50.994;4.538;2023-07-20T05:48:11;16.70;99.90
18163;DHT22;9206;50.994;4.538;2023-07-20T05:51:49;16.80;99.90
18163;DHT22;9206;50.994;4.538;2023-07-20T05:54:24;16.80;99.90
18163;DHT22;9206;50.994;4.538;2023-07-20T05:57:13;16.90;99.90
18163;DHT22;9206;50.994;4.538;2023-07-20T06:00:03;17.00;99.90
18163;DHT22;9206;50.994;4.538;2023-07-20T06:02:51;17.10;99.90
18163;DHT22;9206;50.994;4.538;2023-07-20T06:05:45;17.20;99.90
18163;DHT22;9206;50.994;4.538;2023-07-20T06:08:34;17.30;99.90
18163;DHT22;9206;50.994;4.538;2023-07-20T06:11:22;17.30;99.90
18163;DHT22;9206;50.994;4.538;2023-07-20T06:14:11;17.40;99.90
18163;DHT22;9206;50.994;4.538;2023-07-20T06:17:02;17.60;99.90
18163;DHT22;9206;50.994;4.538;2023-07-20T06:19:49;17.90;99.90
18163;DHT22;9206;50.994;4.538;2023-07-20T06:22:38;18.20;99.90
18163;DHT22;9206;50.994;4.538;2023-07-20T06:25:38;18.60;99.90
18163;DHT22;9206;50.994;4.538;2023-07-20T06:28:26;18.80;99.90
18163;DHT22;9206;50.994;4.538;2023-07-20T06:31:14;19.10;99.90
18163;DHT22;9206;50.994;4.538;2023-07-20T06:34:08;19.00;99.90
18163;DHT22;9206;50.994;4.538;2023-07-20T06:37:01;19.00;99.90
18163;DHT22;9206;50.994;4.538;2023-07-20T06:39:49;19.00;99.90
18163;DHT22;9206;50.994;4.538;2023-07-20T06:42:38;19.00;99.90
18163;DHT22;9206;50.994;4.538;2023-07-20T06:45:25;19.00;99.90
18163;DHT22;9206;50.994;4.538;2023-07-20T06:48:14;18.90;99.90
18163;DHT22;9206;50.994;4.538;2023-07-20T06:51:08;18.90;99.90
18163;DHT22;9206;50.994;4.538;2023-07-20T06:53:55;19.00;99.90
18163;DHT22;9206;50.994;4.538;2023-07-20T06:56:48;19.20;99.90
18163;DHT22;9206;50.994;4.538;2023-07-20T06:59:38;19.40;99.90
18163;DHT22;9206;50.994;4.538;2023-07-20T07:02:32;19.60;99.90
18163;DHT22;9206;50.994;4.538;2023-07-20T07:05:26;19.80;99.90
18163;DHT22;9206;50.994;4.538;2023-07-20T07:08:16;19.90;99.90
18163;DHT22;9206;50.994;4.538;2023-07-20T07:11:04;20.00;99.90
18163;DHT22;9206;50.994;4.538;2023-07-20T07:13:54;20.20;99.90
18163;DHT22;9206;50.994;4.538;2023-07-20T07:16:50;20.40;99.90
18163;DHT22;9206;50.994;4.538;2023-07-20T07:19:46;20.40;99.90
18163;DHT22;9206;50.994;4.538;2023-07-20T07:22:34;20.40;99.90
18163;DHT22;9206;50.994;4.538;2023-07-20T07:25:28;20.40;99.90
18163;DHT22;9206;50.994;4.538;2023-07-20T07:28:19;20.50;99.90
18163;DHT22;9206;50.994;4.538;2023-07-20T07:31:07;20.80;99.90
18163;DHT22;9206;50.994;4.538;2023-07-20T07:33:58;21.00;99.90
18163;DHT22;9206;50.994;4.538;2023-07-20T07:36:51;21.20;99.90
18163;DHT22;9206;50.994;4.538;2023-07-20T07:39:39;21.20;99.90
18163;DHT22;9206;50.994;4.538;2023-07-20T07:42:29;21.30;99.90
18163;DHT22;9206;50.994;4.538;2023-07-20T07:45:16;21.40;99.90
18163;DHT22;9206;50.994;4.538;2023-07-20T07:48:13;21.40;99.90
18163;DHT22;9206;50.994;4.538;2023-07-20T07:51:04;21.70;99.90
18163;DHT22;9206;50.994;4.538;2023-07-20T07:53:57;22.40;99.90
18163;DHT22;9206;50.994;4.538;2023-07-20T07:56:54;23.00;99.90
18163;DHT22;9206;50.994;4.538;2023-07-20T07:59:47;23.50;99.90
18163;DHT22;9206;50.994;4.538;2023-07-20T08:02:36;23.40;99.90
18163;DHT22;9206;50.994;4.538;2023-07-20T08:05:25;23.20;99.90
18163;DHT22;9206;50.994;4.538;2023-07-20T08:08:15;23.40;99.90
18163;DHT22;9206;50.994;4.538;2023-07-20T08:11:07;24.60;99.90
18163;DHT22;9206;50.994;4.538;2023-07-20T08:13:57;26.00;99.90
18163;DHT22;9206;50.994;4.538;2023-07-20T08:16:46;27.60;99.90
18163;DHT22;9206;50.994;4.538;2023-07-20T08:19:40;28.50;99.90
18163;DHT22;9206;50.994;4.538;2023-07-20T08:22:28;28.30;99.90
18163;DHT22;9206;50.994;4.538;2023-07-20T08:25:19;27.20;99.90
18163;DHT22;9206;50.994;4.538;2023-07-20T08:28:10;26.20;99.90
18163;DHT22;9206;50.994;4.538;2023-07-20T08:30:58;25.50;99.90
18163;DHT22;9206;50.994;4.538;2023-07-20T08:33:46;24.70;99.90
18163;DHT22;9206;50.994;4.538;2023-07-20T08:36:33;24.10;99.90
18163;DHT22;9206;50.994;4.538;2023-07-20T08:39:29;23.90;99.90
18163;DHT22;9206;50.994;4.538;2023-07-20T08:42:24;23.20;99.90
18163;DHT22;9206;50.994;4.538;2023-07-20T08:45:13;23.10;99.90
18163;DHT22;9206;50.994;4.538;2023-07-20T08:48:03;24.10;99.90
18163;DHT22;9206;50.994;4.538;2023-07-20T08:50:58;25.40;99.90
18163;DHT22;9206;50.994;4.538;2023-07-20T08:53:52;26.00;99.90
18163;DHT22;9206;50.994;4.538;2023-07-20T08:56:46;26.50;99.90
18163;DHT22;9206;50.994;4.538;2023-07-20T08:59:36;26.30;99.90
18163;DHT22;9206;50.994;4.538;2023-07-20T09:02:31;26.40;99.90
18163;DHT22;9206;50.994;4.538;2023-07-20T09:05:24;27.30;99.90
18163;DHT22;9206;50.994;4.538;2023-07-20T09:08:11;27.00;99.90
18163;DHT22;9206;50.994;4.538;2023-07-20T09:11:06;26.30;99.90
18163;DHT22;9206;50.994;4.538;2023-07-20T09:14:04;27.00;99.90
18163;DHT22;9206;50.994;4.538;2023-07-20T09:16:59;27.30;99.90
18163;DHT22;9206;50.994;4.538;2023-07-20T09:19:53;28.20;99.90
18163;DHT22;9206;50.994;4.538;2023-07-20T09:22:46;28.90;99.90
18163;DHT22;9206;50.994;4.538;2023-07-20T09:25:40;29.20;99.90
18163;DHT22;9206;50.994;4.538;2023-07-20T09:28:28;29.50;99.90
18163;DHT22;9206;50.994;4.538;2023-07-20T09:31:16;30.20;99.90
18163;DHT22;9206;50.994;4.538;2023-07-20T09:34:11;30.00;99.90
18163;DHT22;9206;50.994;4.538;2023-07-20T09:37:02;29.40;99.90
18163;DHT22;9206;50.994;4.538;2023-07-20T09:39:56;28.80;99.90
18163;DHT22;9206;50.994;4.538;2023-07-20T09:42:45;28.30;99.90
18163;DHT22;9206;50.994;4.538;2023-07-20T09:45:38;28.70;99.90
18163;DHT22;9206;50.994;4.538;2023-07-20T09:48:36;28.40;99.90
18163;DHT22;9206;50.994;4.538;2023-07-20T09:51:27;28.20;99.90
18163;DHT22;9206;50.994;4.538;2023-07-20T09:54:17;27.90;99.90
18163;DHT22;9206;50.994;4.538;2023-07-20T09:57:09;27.50;99.90
18163;DHT22;9206;50.994;4.538;2023-07-20T10:00:04;26.90;99.90
18163;DHT22;9206;50.994;4.538;2023-07-20T10:02:59;26.70;99.90
18163;DHT22;9206;50.994;4.538;2023-07-20T10:05:54;27.70;99.90
18163;DHT22;9206;50.994;4.538;2023-07-20T10:08:53;29.30;99.90
18163;DHT22;9206;50.994;4.538;2023-07-20T10:11:50;30.30;99.90
18163;DHT22;9206;50.994;4.538;2023-07-20T10:14:49;31.30;99.90
18163;DHT22;9206;50.994;4.538;2023-07-20T10:17:47;32.00;99.90
18163;DHT22;9206;50.994;4.538;2023-07-20T10:20:38;32.60;99.90
18163;DHT22;9206;50.994;4.538;2023-07-20T10:23:28;31.70;99.90
18163;DHT22;9206;50.994;4.538;2023-07-20T10:26:17;30.90;99.90
18163;DHT22;9206;50.994;4.538;2023-07-20T10:29:05;30.90;99.90
18163;DHT22;9206;50.994;4.538;2023-07-20T10:31:53;31.10;99.90
18163;DHT22;9206;50.994;4.538;2023-07-20T10:34:42;30.40;99.90
18163;DHT22;9206;50.994;4.538;2023-07-20T10:37:52;29.50;99.90
18163;DHT22;9206;50.994;4.538;2023-07-20T10:40:54;30.10;99.90
18163;DHT22;9206;50.994;4.538;2023-07-20T10:43:44;31.00;99.90
18163;DHT22;9206;50.994;4.538;2023-07-20T10:46:45;32.00;99.90
18163;DHT22;9206;50.994;4.538;2023-07-20T10:49:57;32.10;99.90
18163;DHT22;9206;50.994;4.538;2023-07-20T10:53:04;30.80;99.90
18163;DHT22;9206;50.994;4.538;2023-07-20T10:56:08;30.80;99.90
18163;DHT22;9206;50.994;4.538;2023-07-20T10:59:20;31.30;99.90
18163;DHT22;9206;50.994;4.538;2023-07-20T11:02:25;31.50;99.90
18163;DHT22;9206;50.994;4.538;2023-07-20T11:05:39;31.80;99.90
18163;DHT22;9206;50.994;4.538;2023-07-20T11:08:42;32.00;99.90
18163;DHT22;9206;50.994;4.538;2023-07-20T11:11:31;32.50;99.90
18163;DHT22;9206;50.994;4.538;2023-07-20T11:14:26;31.80;99.90
18163;DHT22;9206;50.994;4.538;2023-07-20T11:17:15;31.60;99.90
18163;DHT22;9206;50.994;4.538;2023-07-20T11:20:12;31.20;99.90
18163;DHT22;9206;50.994;4.538;2023-07-20T11:23:03;30.50;99.90
18163;DHT22;9206;50.994;4.538;2023-07-20T11:25:57;30.20;99.90
18163;DHT22;9206;50.994;4.538;2023-07-20T11:28:48;29.60;99.90
18163;DHT22;9206;50.994;4.538;2023-07-20T11:31:41;28.70;99.90
18163;DHT22;9206;50.994;4.538;2023-07-20T11:34:31;28.90;99.90
18163;DHT22;9206;50.994;4.538;2023-07-20T11:37:20;29.70;99.90
18163;DHT22;9206;50.994;4.538;2023-07-20T11:40:18;31.00;99.90
18163;DHT22;9206;50.994;4.538;2023-07-20T11:43:07;31.70;99.90
18163;DHT22;9206;50.994;4.538;2023-07-20T11:46:15;31.80;99.90
18163;DHT22;9206;50.994;4.538;2023-07-20T11:49:05;30.40;99.90
18163;DHT22;9206;50.994;4.538;2023-07-20T11:51:59;30.00;99.90
18163;DHT22;9206;50.994;4.538;2023-07-20T11:54:48;30.10;99.90
18163;DHT22;9206;50.994;4.538;2023-07-20T11:57:41;29.90;99.90
18163;DHT22;9206;50.994;4.538;2023-07-20T12:00:47;29.50;99.90
18163;DHT22;9206;50.994;4.538;2023-07-20T12:03:55;28.90;99.90
18163;DHT22;9206;50.994;4.538;2023-07-20T12:06:45;28.60;99.90
18163;DHT22;9206;50.994;4.538;2023-07-20T12:09:33;28.50;99.90
18163;DHT22;9206;50.994;4.538;2023-07-20T12:12:20;28.40;99.90
18163;DHT22;9206;50.994;4.538;2023-07-20T12:15:15;28.80;99.90
18163;DHT22;9206;50.994;4.538;2023-07-20T12:18:05;29.30;99.90
18163;DHT22;9206;50.994;4.538;2023-07-20T12:20:59;29.80;99.90
18163;DHT22;9206;50.994;4.538;2023-07-20T12:24:01;30.30;99.90
18163;DHT22;9206;50.994;4.538;2023-07-20T12:26:49;30.90;99.90
18163;DHT22;9206;50.994;4.538;2023-07-20T12:29:42;31.00;99.90
18163;DHT22;9206;50.994;4.538;2023-07-20T12:32:30;31.00;99.90
18163;DHT22;9206;50.994;4.538;2023-07-20T12:35:21;30.60;99.90
18163;DHT22;9206;50.994;4.538;2023-07-20T12:38:14;30.30;99.90
18163;DHT22;9206;50.994;4.538;2023-07-20T12:41:09;30.00;99.90
18163;DHT22;9206;50.994;4.538;2023-07-20T12:43:59;29.60;99.90
18163;DHT22;9206;50.994;4.538;2023-07-20T12:46:47;29.30;99.90
18163;DHT22;9206;50.994;4.538;2023-07-20T12:49:36;28.90;99.90
18163;DHT22;9206;50.994;4.538;2023-07-20T12:52:25;28.90;99.90
18163;DHT22;9206;50.994;4.538;2023-07-20T12:55:13;28.80;99.90
18163;DHT22;9206;50.994;4.538;2023-07-20T12:58:06;28.80;99.90
18163;DHT22;9206;50.994;4.538;2023-07-20T13:00:55;28.50;99.90
18163;DHT22;9206;50.994;4.538;2023-07-20T13:03:45;28.10;99.90
18163;DHT22;9206;50.994;4.538;2023-07-20T13:06:34;27.90;99.90
18163;DHT22;9206;50.994;4.538;2023-07-20T13:09:23;27.80;99.90
18163;DHT22;9206;50.994;4.538;2023-07-20T13:12:17;27.60;99.90
18163;DHT22;9206;50.994;4.538;2023-07-20T13:15:09;27.50;99.90
18163;DHT22;9206;50.994;4.538;2023-07-20T13:18:00;27.30;99.90
18163;DHT22;9206;50.994;4.538;2023-07-20T13:20:50;26.90;99.90
18163;DHT22;9206;50.994;4.538;2023-07-20T13:23:39;26.50;99.90
18163;DHT22;9206;50.994;4.538;2023-07-20T13:26:27;26.10;99.90
18163;DHT22;9206;50.994;4.538;2023-07-20T13:29:14;25.80;99.90
18163;DHT22;9206;50.994;4.538;2023-07-20T13:32:05;25.60;99.90
18163;DHT22;9206;50.994;4.538;2023-07-20T13:34:58;25.40;99.90
18163;DHT22;9206;50.994;4.538;2023-07-20T13:37:51;25.20;99.90
18163;DHT22;9206;50.994;4.538;2023-07-20T13:40:39;24.90;99.90
18163;DHT22;9206;50.994;4.538;2023-07-20T13:43:32;24.80;99.90
18163;DHT22;9206;50.994;4.538;2023-07-20T13:46:25;24.70;99.90
18163;DHT22;9206;50.994;4.538;2023-07-20T13:49:20;24.50;99.90
18163;DHT22;9206;50.994;4.538;2023-07-20T13:52:09;24.30;99.90
18163;DHT22;9206;50.994;4.538;2023-07-20T13:54:58;24.20;99.90
18163;DHT22;9206;50.994;4.538;2023-07-20T13:57:51;24.10;99.90
18163;DHT22;9206;50.994;4.538;2023-07-20T14:00:39;23.90;99.90
18163;DHT22;9206;50.994;4.538;2023-07-20T14:03:32;23.70;99.90
18163;DHT22;9206;50.994;4.538;2023-07-20T14:06:23;23.50;99.90
18163;DHT22;9206;50.994;4.538;2023-07-20T14:09:24;23.40;99.90
18163;DHT22;9206;50.994;4.538;2023-07-20T14:12:12;23.20;99.90
18163;DHT22;9206;50.994;4.538;2023-07-20T14:15:00;23.10;99.90
18163;DHT22;9206;50.994;4.538;2023-07-20T14:17:48;23.10;99.90
18163;DHT22;9206;50.994;4.538;2023-07-20T14:20:48;23.10;99.90
18163;DHT22;9206;50.994;4.538;2023-07-20T14:23:50;23.20;99.90
18163;DHT22;9206;50.994;4.538;2023-07-20T14:26:39;23.40;99.90
18163;DHT22;9206;50.994;4.538;2023-07-20T14:29:45;23.50;99.90
18163;DHT22;9206;50.994;4.538;2023-07-20T14:32:36;23.70;99.90
18163;DHT22;9206;50.994;4.538;2023-07-20T14:35:23;23.90;99.90
18163;DHT22;9206;50.994;4.538;2023-07-20T14:38:12;24.10;99.90
18163;DHT22;9206;50.994;4.538;2023-07-20T14:41:05;24.30;99.90
18163;DHT22;9206;50.994;4.538;2023-07-20T14:43:59;24.40;99.90
18163;DHT22;9206;50.994;4.538;2023-07-20T14:47:01;24.70;99.90
18163;DHT22;9206;50.994;4.538;2023-07-20T14:49:59;25.10;99.90
18163;DHT22;9206;50.994;4.538;2023-07-20T14:53:00;25.40;99.90
18163;DHT22;9206;50.994;4.538;2023-07-20T14:55:48;25.70;99.90
18163;DHT22;9206;50.994;4.538;2023-07-20T15:01:54;26.20;99.90
18163;DHT22;9206;50.994;4.538;2023-07-20T15:04:50;26.20;99.90
18163;DHT22;9206;50.994;4.538;2023-07-20T15:07:38;26.10;99.90
18163;DHT22;9206;50.994;4.538;2023-07-20T15:10:27;25.90;99.90
18163;DHT22;9206;50.994;4.538;2023-07-20T15:13:24;25.50;99.90
18163;DHT22;9206;50.994;4.538;2023-07-20T15:16:15;25.20;99.90
18163;DHT22;9206;50.994;4.538;2023-07-20T15:19:17;25.00;99.90
18163;DHT22;9206;50.994;4.538;2023-07-20T15:22:17;24.80;99.90
18163;DHT22;9206;50.994;4.538;2023-07-20T15:25:22;24.60;99.90
18163;DHT22;9206;50.994;4.538;2023-07-20T15:28:10;24.40;99.90
18163;DHT22;9206;50.994;4.538;2023-07-20T15:31:09;24.30;99.90
18163;DHT22;9206;50.994;4.538;2023-07-20T15:34:04;24.20;99.90
18163;DHT22;9206;50.994;4.538;2023-07-20T15:36:54;24.10;99.90
18163;DHT22;9206;50.994;4.538;2023-07-20T15:39:43;24.00;99.90
18163;DHT22;9206;50.994;4.538;2023-07-20T15:42:31;24.10;99.90
18163;DHT22;9206;50.994;4.538;2023-07-20T15:45:21;24.00;99.90
18163;DHT22;9206;50.994;4.538;2023-07-20T15:48:12;24.00;99.90
18163;DHT22;9206;50.994;4.538;2023-07-20T15:51:06;23.90;99.90
18163;DHT22;9206;50.994;4.538;2023-07-20T15:53:59;23.80;99.90
18163;DHT22;9206;50.994;4.538;2023-07-20T15:56:56;23.50;99.90
18163;DHT22;9206;50.994;4.538;2023-07-20T15:59:44;23.20;99.90
18163;DHT22;9206;50.994;4.538;2023-07-20T16:02:40;23.10;99.90
18163;DHT22;9206;50.994;4.538;2023-07-20T16:05:29;22.90;99.90
18163;DHT22;9206;50.994;4.538;2023-07-20T16:08:24;22.40;99.90
18163;DHT22;9206;50.994;4.538;2023-07-20T16:11:20;21.80;99.90
18163;DHT22;9206;50.994;4.538;2023-07-20T16:14:11;21.20;99.90
18163;DHT22;9206;50.994;4.538;2023-07-20T16:17:01;20.90;99.90
18163;DHT22;9206;50.994;4.538;2023-07-20T16:19:52;20.50;99.90
18163;DHT22;9206;50.994;4.538;2023-07-20T16:22:48;20.20;99.90
18163;DHT22;9206;50.994;4.538;2023-07-20T16:25:54;19.90;99.90
18163;DHT22;9206;50.994;4.538;2023-07-20T16:28:57;19.70;99.90
18163;DHT22;9206;50.994;4.538;2023-07-20T16:31:57;19.50;99.90
18163;DHT22;9206;50.994;4.538;2023-07-20T16:34:49;19.40;99.90
18163;DHT22;9206;50.994;4.538;2023-07-20T16:37:39;19.30;99.90
18163;DHT22;9206;50.994;4.538;2023-07-20T16:40:30;19.20;99.90
18163;DHT22;9206;50.994;4.538;2023-07-20T16:43:34;19.20;99.90
18163;DHT22;9206;50.994;4.538;2023-07-20T16:46:42;19.20;99.90
18163;DHT22;9206;50.994;4.538;2023-07-20T16:49:46;19.20;99.90
18163;DHT22;9206;50.994;4.538;2023-07-20T16:52:34;19.20;99.90
18163;DHT22;9206;50.994;4.538;2023-07-20T16:55:26;19.20;99.90
18163;DHT22;9206;50.994;4.538;2023-07-20T16:58:16;19.20;99.90
18163;DHT22;9206;50.994;4.538;2023-07-20T17:01:07;19.20;99.90
18163;DHT22;9206;50.994;4.538;2023-07-20T17:03:57;19.10;99.90
18163;DHT22;9206;50.994;4.538;2023-07-20T17:06:46;19.10;99.90
18163;DHT22;9206;50.994;4.538;2023-07-20T17:09:35;19.10;99.90
18163;DHT22;9206;50.994;4.538;2023-07-20T17:12:28;19.10;99.90
18163;DHT22;9206;50.994;4.538;2023-07-20T17:15:18;19.10;99.90
18163;DHT22;9206;50.994;4.538;2023-07-20T17:18:26;19.10;99.90
18163;DHT22;9206;50.994;4.538;2023-07-20T17:21:23;19.10;99.90
18163;DHT22;9206;50.994;4.538;2023-07-20T17:24:17;19.10;99.90
18163;DHT22;9206;50.994;4.538;2023-07-20T17:27:10;19.00;99.90
18163;DHT22;9206;50.994;4.538;2023-07-20T17:29:59;18.90;99.90
18163;DHT22;9206;50.994;4.538;2023-07-20T17:32:52;18.80;99.90
18163;DHT22;9206;50.994;4.538;2023-07-20T17:35:50;18.80;99.90
18163;DHT22;9206;50.994;4.538;2023-07-20T17:38:40;18.70;99.90
18163;DHT22;9206;50.994;4.538;2023-07-20T17:41:30;18.70;99.90
18163;DHT22;9206;50.994;4.538;2023-07-20T17:44:23;18.70;99.90
18163;DHT22;9206;50.994;4.538;2023-07-20T17:47:11;18.70;99.90
18163;DHT22;9206;50.994;4.538;2023-07-20T17:49:59;18.70;99.90
18163;DHT22;9206;50.994;4.538;2023-07-20T17:52:48;18.70;99.90
18163;DHT22;9206;50.994;4.538;2023-07-20T17:55:39;18.80;99.90
18163;DHT22;9206;50.994;4.538;2023-07-20T17:58:32;18.90;99.90
18163;DHT22;9206;50.994;4.538;2023-07-20T18:01:24;19.20;99.90
18163;DHT22;9206;50.994;4.538;2023-07-20T18:04:15;19.30;99.90
18163;DHT22;9206;50.994;4.538;2023-07-20T18:07:05;19.30;99.90
18163;DHT22;9206;50.994;4.538;2023-07-20T18:10:01;19.30;99.90
18163;DHT22;9206;50.994;4.538;2023-07-20T18:12:51;19.30;99.90
18163;DHT22;9206;50.994;4.538;2023-07-20T18:15:45;19.30;99.90
18163;DHT22;9206;50.994;4.538;2023-07-20T18:18:38;19.30;99.90
18163;DHT22;9206;50.994;4.538;2023-07-20T18:21:27;19.30;99.90
18163;DHT22;9206;50.994;4.538;2023-07-20T18:24:14;19.20;99.90
18163;DHT22;9206;50.994;4.538;2023-07-20T18:27:08;19.30;99.90
18163;DHT22;9206;50.994;4.538;2023-07-20T18:29:55;19.30;99.90